Time,TemperatureF,DewpointF,PressureIn,WindDirection,WindDirectionDegrees,WindSpeedMPH,WindSpeedGustMPH,Humidity,HourlyPrecipIn,Conditions,Clouds,dailyrainin,SoftwareType,DateUTC
2013-02-23 00:06:00,34.7,29.0,30.31,SSE,158,0.0,0.0,78,0.00,,,0.00,weatherlink.com 1.10,2013-02-23 05:06:00,
2013-02-23 00:21:00,34.6,29.0,30.31,SSE,158,0.0,0.0,79,0.00,,,0.00,weatherlink.com 1.10,2013-02-23 05:21:00,
2013-02-23 00:36:00,34.5,29.0,30.31,SSE,158,0.0,0.0,79,0.00,,,0.00,weatherlink.com 1.10,2013-02-23 05:36:00,
2013-02-23 00:51:00,34.5,29.0,30.30,SSE,158,0.0,0.0,79,0.00,,,0.00,weatherlink.com 1.10,2013-02-23 05:51:00,
2013-02-23 01:06:00,34.4,29.0,30.30,SSE,158,0.0,0.0,80,0.00,,,0.00,weatherlink.com 1.10,2013-02-23 06:06:00,
2013-02-23 01:21:00,34.2,29.0,30.30,SSE,158,0.0,0.0,81,0.00,,,0.00,weatherlink.com 1.10,2013-02-23 06:21:00,
2013-02-23 01:36:00,34.3,29.0,30.30,SSE,158,0.0,0.0,80,0.00,,,0.00,weatherlink.com 1.10,2013-02-23 06:36:00,
2013-02-23 01:51:00,34.2,29.0,30.30,SSE,158,0.0,0.0,82,0.00,,,0.00,weatherlink.com 1.10,2013-02-23 06:51:00,
2013-02-23 02:06:00,34.1,29.0,30.30,SSE,158,0.0,0.0,82,0.00,,,0.00,weatherlink.com 1.10,2013-02-23 07:06:00,
2013-02-23 02:21:00,34.0,29.0,30.29,SSE,158,0.0,0.0,82,0.00,,,0.00,weatherlink.com 1.10,2013-02-23 07:21:00,
2013-02-23 02:36:00,33.9,29.0,30.28,SSE,158,0.0,0.0,82,0.00,,,0.00,weatherlink.com 1.10,2013-02-23 07:36:00,
2013-02-23 02:51:00,33.8,29.0,30.27,SSE,158,0.0,0.0,83,0.00,,,0.00,weatherlink.com 1.10,2013-02-23 07:51:00,
2013-02-23 03:06:00,33.7,29.0,30.26,SSE,158,0.0,0.0,83,0.00,,,0.00,weatherlink.com 1.10,2013-02-23 08:06:00,
2013-02-23 03:21:00,33.7,29.0,30.26,SSE,158,0.0,0.0,84,0.00,,,0.00,weatherlink.com 1.10,2013-02-23 08:21:00,
2013-02-23 03:36:00,33.6,29.0,30.25,SSE,158,0.0,0.0,84,0.00,,,0.00,weatherlink.com 1.10,2013-02-23 08:36:00,
2013-02-23 03:51:00,33.7,30.0,30.25,SSE,158,0.0,0.0,85,0.00,,,0.00,weatherlink.com 1.10,2013-02-23 08:51:00,
2013-02-23 04:06:00,33.8,30.0,30.25,SSE,158,0.0,0.0,84,0.00,,,0.00,weatherlink.com 1.10,2013-02-23 09:06:00,
2013-02-23 04:21:00,34.0,30.0,30.25,SSE,158,0.0,0.0,84,0.00,,,0.00,weatherlink.com 1.10,2013-02-23 09:21:00,
2013-02-23 04:36:00,34.2,30.0,30.25,SSE,158,0.0,0.0,85,0.00,,,0.00,weatherlink.com 1.10,2013-02-23 09:36:00,
2013-02-23 04:51:00,34.2,30.0,30.24,SSE,158,0.0,0.0,85,0.00,,,0.00,weatherlink.com 1.10,2013-02-23 09:51:00,
2013-02-23 05:06:00,34.3,30.0,30.23,SSE,158,0.0,0.0,85,0.00,,,0.00,weatherlink.com 1.10,2013-02-23 10:06:00,
2013-02-23 05:21:00,34.5,31.0,30.23,SSE,158,0.0,0.0,85,0.00,,,0.00,weatherlink.com 1.10,2013-02-23 10:21:00,
2013-02-23 05:36:00,34.8,31.0,30.23,ENE,78,1.0,1.0,86,0.00,,,0.00,weatherlink.com 1.10,2013-02-23 10:36:00,
2013-02-23 05:51:00,34.9,31.0,30.22,ENE,78,0.0,0.0,87,0.00,,,0.00,weatherlink.com 1.10,2013-02-23 10:51:00,
2013-02-23 06:06:00,34.7,32.0,30.22,ENE,78,0.0,0.0,88,0.00,,,0.00,weatherlink.com 1.10,2013-02-23 11:06:00,
2013-02-23 06:21:00,34.6,31.0,30.22,ENE,78,0.0,0.0,88,0.00,,,0.00,weatherlink.com 1.10,2013-02-23 11:21:00,
2013-02-23 06:36:00,34.6,31.0,30.21,ENE,78,0.0,0.0,88,0.00,,,0.00,weatherlink.com 1.10,2013-02-23 11:36:00,
2013-02-23 06:51:00,34.5,32.0,30.21,ENE,78,0.0,0.0,89,0.00,,,0.00,weatherlink.com 1.10,2013-02-23 11:51:00,
2013-02-23 07:06:00,34.7,32.0,30.22,ENE,78,0.0,0.0,89,0.00,,,0.00,weatherlink.com 1.10,2013-02-23 12:06:00,
2013-02-23 07:21:00,34.8,32.0,30.22,ENE,78,0.0,0.0,89,0.00,,,0.00,weatherlink.com 1.10,2013-02-23 12:21:00,
2013-02-23 07:36:00,35.2,32.0,30.21,East,81,0.0,1.0,89,0.00,,,0.00,weatherlink.com 1.10,2013-02-23 12:36:00,
2013-02-23 07:51:00,35.9,33.0,30.21,NW,315,0.0,1.0,88,0.00,,,0.00,weatherlink.com 1.10,2013-02-23 12:51:00,
2013-02-23 08:06:00,36.2,33.0,30.20,NW,315,0.0,1.0,89,0.00,,,0.00,weatherlink.com 1.10,2013-02-23 13:06:00,
2013-02-23 08:22:00,36.3,34.0,30.20,NE,48,0.0,2.0,90,0.00,,,0.00,weatherlink.com 1.10,2013-02-23 13:22:00,
2013-02-23 08:37:00,36.3,34.0,30.20,NE,48,0.0,0.0,91,0.00,,,0.00,weatherlink.com 1.10,2013-02-23 13:37:00,
2013-02-23 08:52:00,36.2,34.0,30.19,NE,48,0.0,1.0,92,0.00,,,0.00,weatherlink.com 1.10,2013-02-23 13:52:00,
2013-02-23 09:07:00,36.4,35.0,30.18,NE,48,0.0,0.0,93,0.00,,,0.00,weatherlink.com 1.10,2013-02-23 14:07:00,
2013-02-23 09:22:00,36.5,35.0,30.18,NW,313,0.0,3.0,93,0.00,,,0.00,weatherlink.com 1.10,2013-02-23 14:22:00,
2013-02-23 09:37:00,36.7,35.0,30.18,NW,313,0.0,0.0,93,0.00,,,0.00,weatherlink.com 1.10,2013-02-23 14:37:00,
2013-02-23 09:52:00,37.0,35.0,30.17,NW,313,0.0,1.0,93,0.00,,,0.00,weatherlink.com 1.10,2013-02-23 14:52:00,
2013-02-23 10:07:00,37.4,35.0,30.17,East,80,0.0,2.0,92,0.00,,,0.00,weatherlink.com 1.10,2013-02-23 15:07:00,
2013-02-23 10:22:00,37.7,35.0,30.16,East,93,3.0,6.0,91,0.00,,,0.00,weatherlink.com 1.10,2013-02-23 15:22:00,
2013-02-23 10:37:00,37.8,36.0,30.15,ENE,62,0.0,2.0,91,0.00,,,0.00,weatherlink.com 1.10,2013-02-23 15:37:00,
2013-02-23 10:52:00,37.8,36.0,30.14,North,355,0.0,2.0,92,0.00,,,0.00,weatherlink.com 1.10,2013-02-23 15:52:00,
2013-02-23 11:07:00,38.0,36.0,30.13,ENE,73,0.0,2.0,91,0.00,,,0.00,weatherlink.com 1.10,2013-02-23 16:07:00,
2013-02-23 11:22:00,38.3,36.0,30.13,ENE,77,0.0,4.0,91,0.00,,,0.00,weatherlink.com 1.10,2013-02-23 16:22:00,
2013-02-23 11:37:00,38.4,36.0,30.13,ENE,69,0.0,5.0,91,0.00,,,0.00,weatherlink.com 1.10,2013-02-23 16:37:00,
2013-02-23 11:52:00,38.6,36.0,30.12,ENE,75,0.0,2.0,91,0.00,,,0.00,weatherlink.com 1.10,2013-02-23 16:52:00,
2013-02-23 12:07:00,38.5,36.0,30.12,East,83,1.0,6.0,91,0.00,,,0.00,weatherlink.com 1.10,2013-02-23 17:07:00,
2013-02-23 12:22:00,38.5,37.0,30.10,East,90,2.0,4.0,93,0.00,,,0.00,weatherlink.com 1.10,2013-02-23 17:22:00,
2013-02-23 12:37:00,38.7,37.0,30.09,North,351,4.0,4.0,93,0.00,,,0.00,weatherlink.com 1.10,2013-02-23 17:37:00,
2013-02-23 12:52:00,38.7,37.0,30.09,ENE,72,1.0,4.0,93,0.00,,,0.00,weatherlink.com 1.10,2013-02-23 17:52:00,
2013-02-23 13:07:00,38.6,37.0,30.08,ENE,77,2.0,7.0,92,0.00,,,0.00,weatherlink.com 1.10,2013-02-23 18:07:00,
2013-02-23 13:22:00,38.7,37.0,30.07,ENE,69,2.0,9.0,92,0.00,,,0.00,weatherlink.com 1.10,2013-02-23 18:22:00,
2013-02-23 13:37:00,38.6,37.0,30.07,East,81,0.0,7.0,92,0.00,,,0.00,weatherlink.com 1.10,2013-02-23 18:37:00,
2013-02-23 13:52:00,38.5,36.0,30.07,ENE,73,1.0,6.0,92,0.00,,,0.00,weatherlink.com 1.10,2013-02-23 18:52:00,
2013-02-23 14:07:00,38.5,36.0,30.07,ENE,57,1.0,5.0,92,0.00,,,0.00,weatherlink.com 1.10,2013-02-23 19:07:00,
2013-02-23 14:22:00,38.5,36.0,30.06,North,360,0.0,2.0,92,0.00,,,0.00,weatherlink.com 1.10,2013-02-23 19:22:00,
2013-02-23 14:37:00,38.4,36.0,30.06,ENE,57,2.0,4.0,92,0.00,,,0.00,weatherlink.com 1.10,2013-02-23 19:37:00,
2013-02-23 14:52:00,38.4,36.0,30.06,NE,41,0.0,2.0,92,0.00,,,0.00,weatherlink.com 1.10,2013-02-23 19:52:00,
2013-02-23 15:07:00,38.3,36.0,30.05,NE,38,0.0,4.0,92,0.01,,,0.01,weatherlink.com 1.10,2013-02-23 20:07:00,
2013-02-23 15:22:00,38.2,36.0,30.04,NNE,30,0.0,4.0,93,0.01,,,0.01,weatherlink.com 1.10,2013-02-23 20:22:00,
2013-02-23 15:37:00,38.2,36.0,30.03,ENE,63,0.0,2.0,92,0.01,,,0.01,weatherlink.com 1.10,2013-02-23 20:37:00,
2013-02-23 15:52:00,38.1,36.0,30.03,North,11,0.0,1.0,92,0.01,,,0.01,weatherlink.com 1.10,2013-02-23 20:52:00,
2013-02-23 16:07:00,37.9,36.0,30.03,East,85,0.0,1.0,92,0.01,,,0.02,weatherlink.com 1.10,2013-02-23 21:07:00,
2013-02-23 16:22:00,37.7,36.0,30.04,ENE,57,0.0,3.0,92,0.01,,,0.02,weatherlink.com 1.10,2013-02-23 21:22:00,
2013-02-23 16:37:00,37.3,36.0,30.03,North,5,0.0,0.0,93,0.02,,,0.03,weatherlink.com 1.10,2013-02-23 21:37:00,
2013-02-23 16:52:00,37.0,35.0,30.04,North,5,0.0,1.0,93,0.03,,,0.04,weatherlink.com 1.10,2013-02-23 21:52:00,
2013-02-23 17:07:00,36.8,35.0,30.03,North,360,0.0,1.0,93,0.04,,,0.06,weatherlink.com 1.10,2013-02-23 22:07:00,
2013-02-23 17:22:00,36.4,35.0,30.01,ENE,64,0.0,3.0,94,0.05,,,0.07,weatherlink.com 1.10,2013-02-23 22:22:00,
2013-02-23 17:37:00,36.2,35.0,30.01,North,355,0.0,1.0,94,0.05,,,0.08,weatherlink.com 1.10,2013-02-23 22:37:00,
2013-02-23 17:52:00,36.1,35.0,30.00,North,355,0.0,2.0,94,0.04,,,0.08,weatherlink.com 1.10,2013-02-23 22:52:00,
2013-02-23 18:08:00,36.0,35.0,29.99,NNW,337,0.0,1.0,94,0.03,,,0.09,weatherlink.com 1.10,2013-02-23 23:08:00,
2013-02-23 18:23:00,35.9,34.0,30.00,NNW,333,0.0,2.0,94,0.02,,,0.09,weatherlink.com 1.10,2013-02-23 23:23:00,
2013-02-23 18:38:00,35.8,34.0,29.99,WNW,290,1.0,2.0,94,0.02,,,0.10,weatherlink.com 1.10,2013-02-23 23:38:00,
2013-02-23 18:53:00,35.6,34.0,29.99,NNW,329,0.0,2.0,94,0.03,,,0.11,weatherlink.com 1.10,2013-02-23 23:53:00,
2013-02-23 19:08:00,35.5,34.0,29.98,West,265,0.0,3.0,95,0.04,,,0.13,weatherlink.com 1.10,2013-02-24 00:08:00,
2013-02-23 19:23:00,35.3,34.0,29.98,West,265,0.0,0.0,95,0.04,,,0.13,weatherlink.com 1.10,2013-02-24 00:23:00,
2013-02-23 19:38:00,35.1,34.0,29.98,West,265,0.0,0.0,95,0.04,,,0.14,weatherlink.com 1.10,2013-02-24 00:38:00,
2013-02-23 19:53:00,35.1,34.0,29.97,West,265,1.0,1.0,96,0.03,,,0.14,weatherlink.com 1.10,2013-02-24 00:53:00,
2013-02-23 20:08:00,35.1,34.0,29.97,WNW,300,0.0,1.0,96,0.01,,,0.14,weatherlink.com 1.10,2013-02-24 01:08:00,
2013-02-23 20:23:00,35.0,34.0,29.96,NNW,331,0.0,1.0,96,0.01,,,0.14,weatherlink.com 1.10,2013-02-24 01:23:00,
2013-02-23 20:38:00,35.0,34.0,29.95,WNW,292,0.0,1.0,96,0.01,,,0.15,weatherlink.com 1.10,2013-02-24 01:38:00,
2013-02-23 20:53:00,35.0,34.0,29.94,WNW,302,0.0,1.0,97,0.01,,,0.15,weatherlink.com 1.10,2013-02-24 01:53:00,
2013-02-23 21:09:00,34.9,34.0,29.92,West,279,0.0,2.0,97,0.01,,,0.15,weatherlink.com 1.10,2013-02-24 02:09:00,
2013-02-23 21:23:00,34.9,34.0,29.91,WNW,292,0.0,4.0,97,0.01,,,0.15,weatherlink.com 1.10,2013-02-24 02:23:00,
2013-02-23 21:38:00,34.8,34.0,29.90,WNW,298,0.0,2.0,97,0.00,,,0.15,weatherlink.com 1.10,2013-02-24 02:38:00,
2013-02-23 21:53:00,35.0,34.0,29.90,NW,321,0.0,3.0,97,0.01,,,0.16,weatherlink.com 1.10,2013-02-24 02:53:00,
2013-02-23 22:08:00,34.9,34.0,29.89,NNW,333,2.0,3.0,97,0.01,,,0.16,weatherlink.com 1.10,2013-02-24 03:08:00,
2013-02-23 22:23:00,34.9,34.0,29.88,NNW,329,2.0,4.0,97,0.01,,,0.16,weatherlink.com 1.10,2013-02-24 03:23:00,
2013-02-23 22:38:00,34.7,34.0,29.88,WNW,288,0.0,4.0,97,0.01,,,0.16,weatherlink.com 1.10,2013-02-24 03:38:00,
2013-02-23 22:53:00,34.6,34.0,29.87,NW,316,1.0,6.0,97,0.00,,,0.16,weatherlink.com 1.10,2013-02-24 03:53:00,
2013-02-23 23:08:00,34.5,34.0,29.86,NNW,336,0.0,4.0,97,0.00,,,0.16,weatherlink.com 1.10,2013-02-24 04:08:00,
2013-02-23 23:23:00,34.5,34.0,29.86,NNW,336,3.0,5.0,97,0.00,,,0.16,weatherlink.com 1.10,2013-02-24 04:23:00,
2013-02-23 23:38:00,34.5,34.0,29.85,NW,317,0.0,4.0,97,0.00,,,0.16,weatherlink.com 1.10,2013-02-24 04:38:00,
2013-02-23 23:53:00,34.5,34.0,29.84,NW,318,2.0,4.0,97,0.00,,,0.16,weatherlink.com 1.10,2013-02-24 04:53:00,